Marinicki — 9HWU9 — position and weather

sailwx.info

Track history (hours):
 
Tides and Currents Weather Stations Pressure Air Temp Water Temp Dewpoint Dewpoint Depression Visibility Wind Speed Wind Dir Waves Ship Positions

Marinicki

Last reported at 2016-Jul-22 17:26 UTC. Time now 2016-Jul-27 15:21 UTC.
Position N 40°02' E 026°15'.

Length 225 m; draft 14.5 m.

Type: Cargo ship. MMSI: 249650000.

Date/timePositionNaut miles runAvg speedWind from/ knotsBaromVisibWave heightAir tempDewpointWater temp
2016-Jul-22 17:26N 40°02' E 026°15'7 6.9
2016-Jul-22 16:29N 39°60' E 026°07'14 7.0
2016-Jul-22 14:33N 39°51' E 025°53'6 6.4
2016-Jul-22 13:33N 39°47' E 025°59'0 0.0
2016-Jul-22 08:31N 39°47' E 025°59'0 0.0
2016-Jul-22 04:27N 39°47' E 025°59'4 3.7
2016-Jul-22 03:29N 39°47' E 025°55'3 3.7
2016-Jul-22 02:32N 39°48' E 025°50'13113.0
2016-Jul-21 16:29N 37°52' E 024°32'1212.5
2016-Jul-21 15:31N 37°45' E 024°20'1111.5
2016-Jul-21 14:32N 37°35' E 024°12'1912.9
2016-Jul-21 13:04N 37°17' E 024°06'51412.0
2016-Jul-19 18:16N 36°41' E 013°25'1013.3
2016-Jul-19 17:34N 36°44' E 013°13'1413.6
2016-Jul-19 16:33N 36°47' E 012°57'1313.4
2016-Jul-19 15:33N 36°50' E 012°40'1413.6
2016-Jul-19 14:33N 36°55' E 012°24'1313.5
2016-Jul-19 13:33N 36°58' E 012°08'1413.5
2016-Jul-19 12:33N 37°03' E 011°52'1413.6
2016-Jul-19 11:33N 37°10' E 011°37'1413.8
2016-Jul-19 10:33N 37°17' E 011°22'1414.0
2016-Jul-19 09:33N 37°24' E 011°07'1413.6
2016-Jul-19 08:33N 37°28' E 010°51'1813.9
2016-Jul-19 07:14N 37°33' E 010°29'3814.2
2016-Jul-19 04:32N 37°34' E 009°41'1413.9
2016-Jul-19 03:34N 37°36' E 009°24'1514.2
2016-Jul-19 02:30N 37°41' E 009°06'1313.8
2016-Jul-19 01:33N 37°43' E 008°49'1313.1
2016-Jul-19 00:33N 37°43' E 008°33'1312.7
2016-Jul-18 23:30N 37°43' E 008°16'14313.0
2016-Jul-18 12:31N 37°24' E 005°17'11313.5
2016-Jul-18 04:11N 37°09' E 002°57'1113.2
2016-Jul-18 03:23N 37°08' E 002°44'2413.1
2016-Jul-18 01:32N 37°02' E 002°14'1813.2
2016-Jul-18 00:08N 36°58' E 001°52'1113.2
2016-Jul-17 23:19N 36°56' E 001°39'1013.3
2016-Jul-17 22:33N 36°54' E 001°26'2713.3
2016-Jul-17 20:29N 36°47' E 000°53'1213.3
2016-Jul-17 19:33N 36°44' E 000°38'1313.1
2016-Jul-17 18:33N 36°41' E 000°22'1312.8
2016-Jul-17 17:33N 36°39' E 000°06'1613.1
2016-Jul-17 16:21N 36°35' W 000°13'1513.2
2016-Jul-17 15:15N 36°32' W 000°30'913.0
2016-Jul-17 14:33N 36°30' W 000°41'1313.2
2016-Jul-17 13:33N 36°25' W 000°57'7512.5
2016-Jul-17 07:30N 36°12' W 002°29'13113.1
2016-Jul-16 21:34N 36°00' W 005°10'1111.1
2016-Jul-16 20:34N 36°04' W 005°23'6 5.7
2016-Jul-16 19:31N 36°09' W 005°25'0 0.1
2016-Jul-16 18:31N 36°09' W 005°25'0 0.0
2016-Jul-16 17:31N 36°10' W 005°25'0 0.1
2016-Jul-16 16:31N 36°09' W 005°26'0 0.0
2016-Jul-16 15:31N 36°09' W 005°26'0 0.0
2016-Jul-16 14:31N 36°09' W 005°26'0 0.0
2016-Jul-16 13:31N 36°09' W 005°26'0 0.0
2016-Jul-16 12:31N 36°09' W 005°26'0 0.0
2016-Jul-16 11:31N 36°09' W 005°26'0 0.0
2016-Jul-16 10:28N 36°10' W 005°25'0 0.1
2016-Jul-16 09:31N 36°09' W 005°26'3 2.8
2016-Jul-16 08:33N 36°07' W 005°24'5 5.0
2016-Jul-16 07:33N 36°04' W 005°19'11 3.6
2016-Jul-16 04:25N 36°14' W 005°13'4 0.5
2016-Jul-15 20:28N 36°11' W 005°12'1 0.1
2016-Jul-15 09:23N 36°10' W 005°12'1 0.7
2016-Jul-15 08:32N 36°09' W 005°13'1 0.8
2016-Jul-15 07:33N 36°09' W 005°12'1 0.7
2016-Jul-15 06:33N 36°08' W 005°12'4 2.0
2016-Jul-15 04:31N 36°04' W 005°13'5 5.3
2016-Jul-15 03:33N 35°60' W 005°16'8 8.2
2016-Jul-15 02:33N 35°58' W 005°25'35712.3
2016-Jul-13 21:33N 32°57' W 011°39'1311.7
2016-Jul-13 20:26N 32°50' W 011°52'1111.5
2016-Jul-13 19:30N 32°44' W 012°02'1111.5
2016-Jul-13 18:32N 32°38' W 012°14'4711.4
2016-Jul-13 14:25N 32°11' W 012°59'  
Track history (hours):
 
Tides and Currents Weather Stations Pressure Air Temp Water Temp Dewpoint Dewpoint Depression Visibility Wind Speed Wind Dir Waves Ship Positions

Marinicki

Last reported at 2016-Jul-22 17:26 UTC. Time now 2016-Jul-27 15:21 UTC.
Position N 40°02' E 026°15'.

Length 225 m; draft 14.5 m.

Type: Cargo ship. MMSI: 249650000.

Date/timePositionNaut miles runAvg speedWind from/ knotsBaromVisibWave heightAir tempDewpointWater temp
2016-Jul-22 17:26N 40°02' E 026°15'7 6.9
2016-Jul-22 16:29N 39°60' E 026°07'14 7.0
2016-Jul-22 14:33N 39°51' E 025°53'6 6.4
2016-Jul-22 13:33N 39°47' E 025°59'0 0.0
2016-Jul-22 08:31N 39°47' E 025°59'0 0.0
2016-Jul-22 04:27N 39°47' E 025°59'4 3.7
2016-Jul-22 03:29N 39°47' E 025°55'3 3.7
2016-Jul-22 02:32N 39°48' E 025°50'13113.0
2016-Jul-21 16:29N 37°52' E 024°32'1212.5
2016-Jul-21 15:31N 37°45' E 024°20'1111.5
2016-Jul-21 14:32N 37°35' E 024°12'1912.9
2016-Jul-21 13:04N 37°17' E 024°06'51412.0
2016-Jul-19 18:16N 36°41' E 013°25'1013.3
2016-Jul-19 17:34N 36°44' E 013°13'1413.6
2016-Jul-19 16:33N 36°47' E 012°57'1313.4
2016-Jul-19 15:33N 36°50' E 012°40'1413.6
2016-Jul-19 14:33N 36°55' E 012°24'1313.5
2016-Jul-19 13:33N 36°58' E 012°08'1413.5
2016-Jul-19 12:33N 37°03' E 011°52'1413.6
2016-Jul-19 11:33N 37°10' E 011°37'1413.8
2016-Jul-19 10:33N 37°17' E 011°22'1414.0
2016-Jul-19 09:33N 37°24' E 011°07'1413.6
2016-Jul-19 08:33N 37°28' E 010°51'1813.9
2016-Jul-19 07:14N 37°33' E 010°29'3814.2
2016-Jul-19 04:32N 37°34' E 009°41'1413.9
2016-Jul-19 03:34N 37°36' E 009°24'1514.2
2016-Jul-19 02:30N 37°41' E 009°06'1313.8
2016-Jul-19 01:33N 37°43' E 008°49'1313.1
2016-Jul-19 00:33N 37°43' E 008°33'1312.7
2016-Jul-18 23:30N 37°43' E 008°16'14313.0
2016-Jul-18 12:31N 37°24' E 005°17'11313.5
2016-Jul-18 04:11N 37°09' E 002°57'1113.2
2016-Jul-18 03:23N 37°08' E 002°44'2413.1
2016-Jul-18 01:32N 37°02' E 002°14'1813.2
2016-Jul-18 00:08N 36°58' E 001°52'1113.2
2016-Jul-17 23:19N 36°56' E 001°39'1013.3
2016-Jul-17 22:33N 36°54' E 001°26'2713.3
2016-Jul-17 20:29N 36°47' E 000°53'1213.3
2016-Jul-17 19:33N 36°44' E 000°38'1313.1
2016-Jul-17 18:33N 36°41' E 000°22'1312.8
2016-Jul-17 17:33N 36°39' E 000°06'1613.1
2016-Jul-17 16:21N 36°35' W 000°13'1513.2
2016-Jul-17 15:15N 36°32' W 000°30'913.0
2016-Jul-17 14:33N 36°30' W 000°41'1313.2
2016-Jul-17 13:33N 36°25' W 000°57'7512.5
2016-Jul-17 07:30N 36°12' W 002°29'13113.1
2016-Jul-16 21:34N 36°00' W 005°10'1111.1
2016-Jul-16 20:34N 36°04' W 005°23'6 5.7
2016-Jul-16 19:31N 36°09' W 005°25'0 0.1
2016-Jul-16 18:31N 36°09' W 005°25'0 0.0
2016-Jul-16 17:31N 36°10' W 005°25'0 0.1
2016-Jul-16 16:31N 36°09' W 005°26'0 0.0
2016-Jul-16 15:31N 36°09' W 005°26'0 0.0
2016-Jul-16 14:31N 36°09' W 005°26'0 0.0
2016-Jul-16 13:31N 36°09' W 005°26'0 0.0
2016-Jul-16 12:31N 36°09' W 005°26'0 0.0
2016-Jul-16 11:31N 36°09' W 005°26'0 0.0
2016-Jul-16 10:28N 36°10' W 005°25'0 0.1
2016-Jul-16 09:31N 36°09' W 005°26'3 2.8
2016-Jul-16 08:33N 36°07' W 005°24'5 5.0
2016-Jul-16 07:33N 36°04' W 005°19'11 3.6
2016-Jul-16 04:25N 36°14' W 005°13'4 0.5
2016-Jul-15 20:28N 36°11' W 005°12'1 0.1
2016-Jul-15 09:23N 36°10' W 005°12'1 0.7
2016-Jul-15 08:32N 36°09' W 005°13'1 0.8
2016-Jul-15 07:33N 36°09' W 005°12'1 0.7
2016-Jul-15 06:33N 36°08' W 005°12'4 2.0
2016-Jul-15 04:31N 36°04' W 005°13'5 5.3
2016-Jul-15 03:33N 35°60' W 005°16'8 8.2
2016-Jul-15 02:33N 35°58' W 005°25'35712.3
2016-Jul-13 21:33N 32°57' W 011°39'1311.7
2016-Jul-13 20:26N 32°50' W 011°52'1111.5
2016-Jul-13 19:30N 32°44' W 012°02'1111.5
2016-Jul-13 18:32N 32°38' W 012°14'4711.4
2016-Jul-13 14:25N 32°11' W 012°59'  

Dump ship's entire track history